This is the latest recevied weather packets stored in our database for station/object K1FFK-1. If no packets are shown the sender has not sent any weather packets the latest 1 day(s).
| Time | Temp. | Humidity | Pressure | Rain* | Wind** | Luminosity | Snow |
|---|---|---|---|---|---|---|---|
| 1778005293 | 18.33° C | 52% | 1013 hPa | 0 mm | 2.24 m/s, 201° | - | - |
| 1778004694 | 18.33° C | 52% | 1012.6 hPa | 0 mm | 2.24 m/s, 225° | - | - |
| 1778004094 | 17.78° C | 54% | 1013.4 hPa | 0 mm | 2.68 m/s, 203° | - | - |
| 1778003493 | 17.78° C | 55% | 1013.5 hPa | 0 mm | 1.79 m/s, 217° | - | - |
| 1778002894 | 18.89° C | 52% | 1013.5 hPa | 0 mm | 1.34 m/s, 210° | - | - |
| 1778002293 | 18.89° C | 53% | 1013.5 hPa | 0 mm | 2.24 m/s, 202° | - | - |
| 1778001693 | 18.89° C | 52% | 1013.6 hPa | 0 mm | 1.34 m/s, 220° | - | - |
| 1778001094 | 18.89° C | 52% | 1013.5 hPa | 0 mm | 1.34 m/s, 225° | - | - |
| 1778000493 | 18.89° C | 53% | 1013.6 hPa | 0 mm | 1.34 m/s, 206° | - | - |
| 1777999894 | 18.89° C | 52% | 1013.3 hPa | 0 mm | 2.68 m/s, 196° | - | - |
| 1777999293 | 18.89° C | 52% | 1013.7 hPa | 0 mm | 2.24 m/s, 205° | - | - |
| 1777998694 | 18.33° C | 54% | 1013.9 hPa | 0 mm | 1.79 m/s, 191° | - | - |
| 1777998094 | 18.33° C | 54% | 1014.1 hPa | 0 mm | 0.89 m/s, 227° | - | - |
| 1777997493 | 17.22° C | 57% | 1014.2 hPa | 0 mm | 1.34 m/s, 215° | - | - |
| 1777996894 | 18.33° C | 56% | 1014.1 hPa | 0 mm | 1.79 m/s, 192° | - | - |
| 1777996294 | 18.33° C | 58% | 1014.3 hPa | 0 mm | 0.89 m/s, 181° | - | - |
| 1777995694 | 18.33° C | 56% | 1014.3 hPa | 0 mm | 1.34 m/s, 177° | - | - |
| 1777995093 | 17.78° C | 58% | 1014.3 hPa | 0 mm | 1.34 m/s, 195° | - | - |
| 1777994494 | 17.78° C | 59% | 1014.6 hPa | 0 mm | 0.45 m/s, 194° | - | - |
| 1777993893 | 16.67° C | 61% | 1014.5 hPa | 0 mm | 0.45 m/s, 196° | - | - |
| 1777993294 | 16.11° C | 60% | 1014.5 hPa | 0 mm | 1.79 m/s, 191° | - | - |
| 1777992694 | 16.11° C | 61% | 1014.7 hPa | 0 mm | 1.34 m/s, 189° | - | - |
| 1777992094 | 15.56° C | 63% | 1014.8 hPa | 0 mm | 1.79 m/s, 191° | - | - |
| 1777991494 | 15.56° C | 64% | 1014.6 hPa | 0 mm | 0.89 m/s, 175° | - | - |
| 1777990893 | 15° C | 64% | 1014.6 hPa | 0 mm | 0.89 m/s, 251° | - | - |
* Rain latest hour (hover to see other rain measurements)
** Current wind speed in m/s (hover to see current wind gust speed)